sensor_id;sensor_type;location;lat;lon;timestamp;P1;durP1;ratioP1;P2;durP2;ratioP2
10643;SDS011;5370;50.132;8.626;2024-02-14T00:01:05;5.33;;;3.80;;
10643;SDS011;5370;50.132;8.626;2024-02-14T00:03:33;7.23;;;4.70;;
10643;SDS011;5370;50.132;8.626;2024-02-14T00:05:59;5.63;;;3.87;;
10643;SDS011;5370;50.132;8.626;2024-02-14T00:08:25;6.03;;;3.83;;
10643;SDS011;5370;50.132;8.626;2024-02-14T00:10:50;9.53;;;4.13;;
10643;SDS011;5370;50.132;8.626;2024-02-14T00:13:16;6.67;;;3.40;;
10643;SDS011;5370;50.132;8.626;2024-02-14T00:15:43;6.60;;;3.70;;
10643;SDS011;5370;50.132;8.626;2024-02-14T00:18:10;5.03;;;3.60;;
10643;SDS011;5370;50.132;8.626;2024-02-14T00:20:36;4.87;;;3.40;;
10643;SDS011;5370;50.132;8.626;2024-02-14T00:23:02;8.57;;;4.90;;
10643;SDS011;5370;50.132;8.626;2024-02-14T00:25:28;4.93;;;3.33;;
10643;SDS011;5370;50.132;8.626;2024-02-14T00:27:55;6.63;;;4.10;;
10643;SDS011;5370;50.132;8.626;2024-02-14T00:30:20;6.57;;;3.33;;
10643;SDS011;5370;50.132;8.626;2024-02-14T00:32:48;8.17;;;3.67;;
10643;SDS011;5370;50.132;8.626;2024-02-14T00:35:13;6.70;;;3.90;;
10643;SDS011;5370;50.132;8.626;2024-02-14T00:37:39;7.03;;;3.60;;
10643;SDS011;5370;50.132;8.626;2024-02-14T00:40:05;3.67;;;3.27;;
10643;SDS011;5370;50.132;8.626;2024-02-14T00:42:31;4.70;;;3.47;;
10643;SDS011;5370;50.132;8.626;2024-02-14T00:44:56;8.80;;;3.53;;
10643;SDS011;5370;50.132;8.626;2024-02-14T00:47:22;5.93;;;3.43;;
10643;SDS011;5370;50.132;8.626;2024-02-14T00:49:47;6.80;;;3.77;;
10643;SDS011;5370;50.132;8.626;2024-02-14T00:52:13;6.20;;;3.70;;
10643;SDS011;5370;50.132;8.626;2024-02-14T00:54:39;6.83;;;3.57;;
10643;SDS011;5370;50.132;8.626;2024-02-14T00:57:04;5.73;;;3.40;;
10643;SDS011;5370;50.132;8.626;2024-02-14T00:59:30;4.60;;;3.73;;
10643;SDS011;5370;50.132;8.626;2024-02-14T01:01:55;4.07;;;3.53;;
10643;SDS011;5370;50.132;8.626;2024-02-14T01:04:21;5.20;;;3.53;;
10643;SDS011;5370;50.132;8.626;2024-02-14T01:06:46;7.03;;;4.00;;
10643;SDS011;5370;50.132;8.626;2024-02-14T01:09:14;6.70;;;4.30;;
10643;SDS011;5370;50.132;8.626;2024-02-14T01:11:40;5.97;;;3.87;;
10643;SDS011;5370;50.132;8.626;2024-02-14T01:14:05;5.57;;;3.90;;
10643;SDS011;5370;50.132;8.626;2024-02-14T01:16:31;6.80;;;3.77;;
10643;SDS011;5370;50.132;8.626;2024-02-14T01:18:56;7.23;;;4.13;;
10643;SDS011;5370;50.132;8.626;2024-02-14T01:21:22;5.80;;;4.20;;
10643;SDS011;5370;50.132;8.626;2024-02-14T01:23:47;6.03;;;4.47;;
10643;SDS011;5370;50.132;8.626;2024-02-14T01:26:13;9.93;;;4.20;;
10643;SDS011;5370;50.132;8.626;2024-02-14T01:28:39;9.80;;;4.37;;
10643;SDS011;5370;50.132;8.626;2024-02-14T01:31:05;8.87;;;5.30;;
10643;SDS011;5370;50.132;8.626;2024-02-14T01:33:30;6.53;;;4.83;;
10643;SDS011;5370;50.132;8.626;2024-02-14T01:35:56;10.43;;;4.93;;
10643;SDS011;5370;50.132;8.626;2024-02-14T01:38:22;7.70;;;4.80;;
10643;SDS011;5370;50.132;8.626;2024-02-14T01:40:48;6.33;;;4.83;;
10643;SDS011;5370;50.132;8.626;2024-02-14T01:43:13;6.83;;;4.40;;
10643;SDS011;5370;50.132;8.626;2024-02-14T01:45:39;11.20;;;4.63;;
10643;SDS011;5370;50.132;8.626;2024-02-14T01:48:05;6.67;;;4.03;;
10643;SDS011;5370;50.132;8.626;2024-02-14T01:50:32;7.57;;;5.07;;
10643;SDS011;5370;50.132;8.626;2024-02-14T01:52:59;9.07;;;5.37;;
10643;SDS011;5370;50.132;8.626;2024-02-14T01:55:26;7.73;;;4.40;;
10643;SDS011;5370;50.132;8.626;2024-02-14T01:57:53;7.67;;;4.30;;
10643;SDS011;5370;50.132;8.626;2024-02-14T02:00:19;8.60;;;4.60;;
10643;SDS011;5370;50.132;8.626;2024-02-14T02:02:45;9.10;;;4.63;;
10643;SDS011;5370;50.132;8.626;2024-02-14T02:05:12;8.17;;;4.27;;
10643;SDS011;5370;50.132;8.626;2024-02-14T02:07:38;9.07;;;4.33;;
10643;SDS011;5370;50.132;8.626;2024-02-14T02:10:08;5.70;;;4.60;;
10643;SDS011;5370;50.132;8.626;2024-02-14T02:12:37;5.67;;;4.13;;
10643;SDS011;5370;50.132;8.626;2024-02-14T02:15:06;8.43;;;4.87;;
10643;SDS011;5370;50.132;8.626;2024-02-14T02:17:39;10.30;;;5.03;;
10643;SDS011;5370;50.132;8.626;2024-02-14T02:20:05;7.07;;;4.40;;
10643;SDS011;5370;50.132;8.626;2024-02-14T02:22:33;7.83;;;5.00;;
10643;SDS011;5370;50.132;8.626;2024-02-14T02:25:00;7.13;;;4.23;;
10643;SDS011;5370;50.132;8.626;2024-02-14T02:27:27;10.60;;;4.17;;
10643;SDS011;5370;50.132;8.626;2024-02-14T02:29:52;5.27;;;4.10;;
10643;SDS011;5370;50.132;8.626;2024-02-14T02:32:18;8.00;;;4.93;;
10643;SDS011;5370;50.132;8.626;2024-02-14T02:34:44;6.37;;;4.70;;
10643;SDS011;5370;50.132;8.626;2024-02-14T02:37:10;8.33;;;4.67;;
10643;SDS011;5370;50.132;8.626;2024-02-14T02:39:36;5.90;;;4.20;;
10643;SDS011;5370;50.132;8.626;2024-02-14T02:42:03;8.20;;;4.47;;
10643;SDS011;5370;50.132;8.626;2024-02-14T02:44:28;8.67;;;5.27;;
10643;SDS011;5370;50.132;8.626;2024-02-14T02:46:54;7.80;;;3.67;;
10643;SDS011;5370;50.132;8.626;2024-02-14T02:49:20;7.87;;;3.90;;
10643;SDS011;5370;50.132;8.626;2024-02-14T02:51:46;6.23;;;4.23;;
10643;SDS011;5370;50.132;8.626;2024-02-14T02:54:12;6.50;;;4.30;;
10643;SDS011;5370;50.132;8.626;2024-02-14T02:56:38;7.17;;;3.90;;
10643;SDS011;5370;50.132;8.626;2024-02-14T02:59:05;5.93;;;4.53;;
10643;SDS011;5370;50.132;8.626;2024-02-14T03:01:35;9.40;;;4.10;;
10643;SDS011;5370;50.132;8.626;2024-02-14T03:04:01;6.60;;;4.30;;
10643;SDS011;5370;50.132;8.626;2024-02-14T03:06:27;5.57;;;3.63;;
10643;SDS011;5370;50.132;8.626;2024-02-14T03:08:53;6.73;;;3.83;;
10643;SDS011;5370;50.132;8.626;2024-02-14T03:11:21;5.40;;;3.50;;
10643;SDS011;5370;50.132;8.626;2024-02-14T03:13:47;7.33;;;4.20;;
10643;SDS011;5370;50.132;8.626;2024-02-14T03:16:13;6.43;;;3.77;;
10643;SDS011;5370;50.132;8.626;2024-02-14T03:18:40;8.40;;;4.30;;
10643;SDS011;5370;50.132;8.626;2024-02-14T03:21:05;5.90;;;3.73;;
10643;SDS011;5370;50.132;8.626;2024-02-14T03:23:31;5.97;;;4.07;;
10643;SDS011;5370;50.132;8.626;2024-02-14T03:25:57;5.90;;;3.80;;
10643;SDS011;5370;50.132;8.626;2024-02-14T03:28:23;6.67;;;4.70;;
10643;SDS011;5370;50.132;8.626;2024-02-14T03:30:49;12.70;;;7.00;;
10643;SDS011;5370;50.132;8.626;2024-02-14T03:33:15;11.33;;;4.43;;
10643;SDS011;5370;50.132;8.626;2024-02-14T03:35:41;10.03;;;4.97;;
10643;SDS011;5370;50.132;8.626;2024-02-14T03:38:06;6.17;;;4.43;;
10643;SDS011;5370;50.132;8.626;2024-02-14T03:40:33;7.47;;;4.07;;
10643;SDS011;5370;50.132;8.626;2024-02-14T03:43:00;4.63;;;3.33;;
10643;SDS011;5370;50.132;8.626;2024-02-14T03:45:27;7.03;;;3.93;;
10643;SDS011;5370;50.132;8.626;2024-02-14T03:47:54;7.30;;;3.87;;
10643;SDS011;5370;50.132;8.626;2024-02-14T03:50:21;6.90;;;3.43;;
10643;SDS011;5370;50.132;8.626;2024-02-14T03:52:47;7.03;;;3.53;;
10643;SDS011;5370;50.132;8.626;2024-02-14T03:55:13;11.07;;;3.47;;
10643;SDS011;5370;50.132;8.626;2024-02-14T03:57:40;4.53;;;3.07;;
10643;SDS011;5370;50.132;8.626;2024-02-14T04:00:06;3.83;;;3.10;;
10643;SDS011;5370;50.132;8.626;2024-02-14T04:02:35;5.60;;;3.47;;
10643;SDS011;5370;50.132;8.626;2024-02-14T04:05:02;11.17;;;3.33;;
10643;SDS011;5370;50.132;8.626;2024-02-14T04:07:28;5.13;;;3.20;;
10643;SDS011;5370;50.132;8.626;2024-02-14T04:09:54;4.80;;;2.60;;
10643;SDS011;5370;50.132;8.626;2024-02-14T04:12:20;7.13;;;3.40;;
10643;SDS011;5370;50.132;8.626;2024-02-14T04:14:45;7.07;;;3.27;;
10643;SDS011;5370;50.132;8.626;2024-02-14T04:17:11;5.37;;;2.97;;
10643;SDS011;5370;50.132;8.626;2024-02-14T04:19:37;8.57;;;3.17;;
10643;SDS011;5370;50.132;8.626;2024-02-14T04:22:03;8.47;;;3.20;;
10643;SDS011;5370;50.132;8.626;2024-02-14T04:24:29;3.83;;;3.37;;
10643;SDS011;5370;50.132;8.626;2024-02-14T04:26:54;5.33;;;3.57;;
10643;SDS011;5370;50.132;8.626;2024-02-14T04:29:21;6.07;;;3.00;;
10643;SDS011;5370;50.132;8.626;2024-02-14T04:31:48;8.27;;;3.63;;
10643;SDS011;5370;50.132;8.626;2024-02-14T04:34:14;6.07;;;3.50;;
10643;SDS011;5370;50.132;8.626;2024-02-14T04:36:39;5.40;;;3.10;;
10643;SDS011;5370;50.132;8.626;2024-02-14T04:39:05;5.83;;;3.37;;
10643;SDS011;5370;50.132;8.626;2024-02-14T04:41:32;7.53;;;2.97;;
10643;SDS011;5370;50.132;8.626;2024-02-14T04:44:02;6.50;;;3.13;;
10643;SDS011;5370;50.132;8.626;2024-02-14T04:46:34;7.87;;;3.30;;
10643;SDS011;5370;50.132;8.626;2024-02-14T04:49:01;6.87;;;3.30;;
10643;SDS011;5370;50.132;8.626;2024-02-14T04:51:30;4.07;;;3.27;;
10643;SDS011;5370;50.132;8.626;2024-02-14T04:53:56;7.87;;;4.17;;
10643;SDS011;5370;50.132;8.626;2024-02-14T04:56:26;5.77;;;3.03;;
10643;SDS011;5370;50.132;8.626;2024-02-14T04:58:54;6.67;;;4.10;;
10643;SDS011;5370;50.132;8.626;2024-02-14T05:01:20;13.53;;;3.87;;
10643;SDS011;5370;50.132;8.626;2024-02-14T05:03:46;6.73;;;4.03;;
10643;SDS011;5370;50.132;8.626;2024-02-14T05:06:11;7.73;;;3.80;;
10643;SDS011;5370;50.132;8.626;2024-02-14T05:08:37;6.87;;;3.60;;
10643;SDS011;5370;50.132;8.626;2024-02-14T05:11:02;8.83;;;4.53;;
10643;SDS011;5370;50.132;8.626;2024-02-14T05:13:28;6.90;;;3.83;;
10643;SDS011;5370;50.132;8.626;2024-02-14T05:15:55;6.93;;;3.73;;
10643;SDS011;5370;50.132;8.626;2024-02-14T05:18:20;12.33;;;4.43;;
10643;SDS011;5370;50.132;8.626;2024-02-14T05:20:46;7.63;;;3.13;;
10643;SDS011;5370;50.132;8.626;2024-02-14T05:23:11;5.10;;;3.87;;
10643;SDS011;5370;50.132;8.626;2024-02-14T05:25:37;7.63;;;3.57;;
10643;SDS011;5370;50.132;8.626;2024-02-14T05:28:02;5.93;;;4.10;;
10643;SDS011;5370;50.132;8.626;2024-02-14T05:30:28;6.47;;;3.80;;
10643;SDS011;5370;50.132;8.626;2024-02-14T05:32:54;6.57;;;4.00;;
10643;SDS011;5370;50.132;8.626;2024-02-14T05:35:20;6.70;;;4.00;;
10643;SDS011;5370;50.132;8.626;2024-02-14T05:37:47;8.93;;;3.80;;
10643;SDS011;5370;50.132;8.626;2024-02-14T05:40:14;8.07;;;3.57;;
10643;SDS011;5370;50.132;8.626;2024-02-14T05:42:40;6.33;;;3.70;;
10643;SDS011;5370;50.132;8.626;2024-02-14T05:45:06;9.20;;;3.80;;
10643;SDS011;5370;50.132;8.626;2024-02-14T05:47:34;4.63;;;3.73;;
10643;SDS011;5370;50.132;8.626;2024-02-14T05:50:00;10.97;;;4.50;;
10643;SDS011;5370;50.132;8.626;2024-02-14T05:52:26;6.13;;;3.80;;
10643;SDS011;5370;50.132;8.626;2024-02-14T05:54:52;9.83;;;4.10;;
10643;SDS011;5370;50.132;8.626;2024-02-14T05:57:17;5.73;;;3.17;;
10643;SDS011;5370;50.132;8.626;2024-02-14T05:59:43;5.83;;;4.43;;
10643;SDS011;5370;50.132;8.626;2024-02-14T06:02:08;10.90;;;3.60;;
10643;SDS011;5370;50.132;8.626;2024-02-14T06:04:34;6.03;;;3.40;;
10643;SDS011;5370;50.132;8.626;2024-02-14T06:07:00;12.07;;;4.77;;
10643;SDS011;5370;50.132;8.626;2024-02-14T06:09:27;6.23;;;3.83;;
10643;SDS011;5370;50.132;8.626;2024-02-14T06:11:53;5.20;;;3.60;;
10643;SDS011;5370;50.132;8.626;2024-02-14T06:14:18;8.57;;;3.47;;
10643;SDS011;5370;50.132;8.626;2024-02-14T06:16:44;6.47;;;3.87;;
10643;SDS011;5370;50.132;8.626;2024-02-14T06:19:09;5.47;;;3.80;;
10643;SDS011;5370;50.132;8.626;2024-02-14T06:21:36;8.00;;;3.93;;
10643;SDS011;5370;50.132;8.626;2024-02-14T06:24:02;10.97;;;4.17;;
10643;SDS011;5370;50.132;8.626;2024-02-14T06:26:30;5.63;;;3.10;;
10643;SDS011;5370;50.132;8.626;2024-02-14T06:28:58;9.43;;;4.27;;
10643;SDS011;5370;50.132;8.626;2024-02-14T06:31:23;5.43;;;3.63;;
10643;SDS011;5370;50.132;8.626;2024-02-14T06:33:49;8.97;;;3.63;;
10643;SDS011;5370;50.132;8.626;2024-02-14T06:36:14;10.20;;;3.70;;
10643;SDS011;5370;50.132;8.626;2024-02-14T06:38:40;5.13;;;3.10;;
10643;SDS011;5370;50.132;8.626;2024-02-14T06:41:06;7.87;;;3.63;;
10643;SDS011;5370;50.132;8.626;2024-02-14T06:43:32;7.63;;;3.40;;
10643;SDS011;5370;50.132;8.626;2024-02-14T06:45:57;8.70;;;3.20;;
10643;SDS011;5370;50.132;8.626;2024-02-14T06:48:23;4.60;;;3.47;;
10643;SDS011;5370;50.132;8.626;2024-02-14T06:50:52;13.00;;;4.10;;
10643;SDS011;5370;50.132;8.626;2024-02-14T06:53:17;6.30;;;3.83;;
10643;SDS011;5370;50.132;8.626;2024-02-14T06:55:43;4.90;;;3.10;;
10643;SDS011;5370;50.132;8.626;2024-02-14T06:58:09;7.17;;;3.30;;
10643;SDS011;5370;50.132;8.626;2024-02-14T07:00:34;8.50;;;3.57;;
10643;SDS011;5370;50.132;8.626;2024-02-14T07:03:00;5.23;;;3.10;;
10643;SDS011;5370;50.132;8.626;2024-02-14T07:05:26;5.00;;;3.57;;
10643;SDS011;5370;50.132;8.626;2024-02-14T07:07:52;11.53;;;3.27;;
10643;SDS011;5370;50.132;8.626;2024-02-14T07:10:19;6.57;;;3.20;;
10643;SDS011;5370;50.132;8.626;2024-02-14T07:12:45;6.73;;;3.23;;
10643;SDS011;5370;50.132;8.626;2024-02-14T07:15:10;3.77;;;2.60;;
10643;SDS011;5370;50.132;8.626;2024-02-14T07:17:36;4.13;;;3.73;;
10643;SDS011;5370;50.132;8.626;2024-02-14T07:20:03;6.87;;;3.53;;
10643;SDS011;5370;50.132;8.626;2024-02-14T07:22:29;6.10;;;3.33;;
10643;SDS011;5370;50.132;8.626;2024-02-14T07:24:55;5.10;;;2.43;;
10643;SDS011;5370;50.132;8.626;2024-02-14T07:27:21;5.00;;;3.03;;
10643;SDS011;5370;50.132;8.626;2024-02-14T07:29:47;9.17;;;3.83;;
10643;SDS011;5370;50.132;8.626;2024-02-14T07:32:13;7.73;;;3.37;;
10643;SDS011;5370;50.132;8.626;2024-02-14T07:34:39;6.47;;;3.70;;
10643;SDS011;5370;50.132;8.626;2024-02-14T07:37:05;5.73;;;3.50;;
10643;SDS011;5370;50.132;8.626;2024-02-14T07:39:30;5.67;;;3.20;;
10643;SDS011;5370;50.132;8.626;2024-02-14T07:41:56;5.10;;;3.20;;
10643;SDS011;5370;50.132;8.626;2024-02-14T07:44:22;7.13;;;3.13;;
10643;SDS011;5370;50.132;8.626;2024-02-14T07:46:49;7.03;;;3.10;;
10643;SDS011;5370;50.132;8.626;2024-02-14T07:49:14;9.43;;;3.60;;
10643;SDS011;5370;50.132;8.626;2024-02-14T07:51:40;6.20;;;3.50;;
10643;SDS011;5370;50.132;8.626;2024-02-14T07:54:06;6.50;;;3.33;;
10643;SDS011;5370;50.132;8.626;2024-02-14T07:56:31;10.40;;;3.90;;
10643;SDS011;5370;50.132;8.626;2024-02-14T07:58:57;5.57;;;3.40;;
10643;SDS011;5370;50.132;8.626;2024-02-14T08:01:23;7.33;;;3.23;;
10643;SDS011;5370;50.132;8.626;2024-02-14T08:03:49;7.73;;;3.40;;
10643;SDS011;5370;50.132;8.626;2024-02-14T08:06:14;6.43;;;3.43;;
10643;SDS011;5370;50.132;8.626;2024-02-14T08:08:40;5.37;;;3.70;;
10643;SDS011;5370;50.132;8.626;2024-02-14T08:11:05;7.67;;;2.90;;
10643;SDS011;5370;50.132;8.626;2024-02-14T08:13:31;5.00;;;3.00;;
10643;SDS011;5370;50.132;8.626;2024-02-14T08:15:57;6.83;;;3.63;;
10643;SDS011;5370;50.132;8.626;2024-02-14T08:18:25;5.27;;;3.10;;
10643;SDS011;5370;50.132;8.626;2024-02-14T08:20:52;6.53;;;3.30;;
10643;SDS011;5370;50.132;8.626;2024-02-14T08:23:18;8.20;;;2.93;;
10643;SDS011;5370;50.132;8.626;2024-02-14T08:25:44;7.20;;;2.87;;
10643;SDS011;5370;50.132;8.626;2024-02-14T08:28:10;7.97;;;3.40;;
10643;SDS011;5370;50.132;8.626;2024-02-14T08:30:36;5.17;;;2.60;;
10643;SDS011;5370;50.132;8.626;2024-02-14T08:33:02;5.97;;;3.17;;
10643;SDS011;5370;50.132;8.626;2024-02-14T08:35:28;6.40;;;3.00;;
10643;SDS011;5370;50.132;8.626;2024-02-14T08:37:54;6.80;;;3.20;;
10643;SDS011;5370;50.132;8.626;2024-02-14T08:40:20;5.87;;;2.93;;
10643;SDS011;5370;50.132;8.626;2024-02-14T08:42:45;4.27;;;2.57;;
10643;SDS011;5370;50.132;8.626;2024-02-14T08:45:12;6.60;;;2.93;;
10643;SDS011;5370;50.132;8.626;2024-02-14T08:47:37;7.30;;;3.67;;
10643;SDS011;5370;50.132;8.626;2024-02-14T08:50:03;10.07;;;2.90;;
10643;SDS011;5370;50.132;8.626;2024-02-14T08:52:29;3.47;;;2.00;;
10643;SDS011;5370;50.132;8.626;2024-02-14T08:54:55;3.93;;;2.60;;
10643;SDS011;5370;50.132;8.626;2024-02-14T08:57:20;4.17;;;2.30;;
10643;SDS011;5370;50.132;8.626;2024-02-14T08:59:47;7.40;;;2.20;;
10643;SDS011;5370;50.132;8.626;2024-02-14T09:02:13;6.27;;;2.57;;
10643;SDS011;5370;50.132;8.626;2024-02-14T09:04:39;9.67;;;2.80;;
10643;SDS011;5370;50.132;8.626;2024-02-14T09:07:09;3.10;;;1.90;;
10643;SDS011;5370;50.132;8.626;2024-02-14T09:09:35;6.13;;;2.50;;
10643;SDS011;5370;50.132;8.626;2024-02-14T09:12:03;5.40;;;2.33;;
10643;SDS011;5370;50.132;8.626;2024-02-14T09:14:29;3.20;;;1.87;;
10643;SDS011;5370;50.132;8.626;2024-02-14T09:16:55;3.10;;;2.33;;
10643;SDS011;5370;50.132;8.626;2024-02-14T09:19:21;6.00;;;2.20;;
10643;SDS011;5370;50.132;8.626;2024-02-14T09:21:46;2.30;;;1.97;;
10643;SDS011;5370;50.132;8.626;2024-02-14T09:24:12;3.17;;;2.40;;
10643;SDS011;5370;50.132;8.626;2024-02-14T09:26:38;3.57;;;1.90;;
10643;SDS011;5370;50.132;8.626;2024-02-14T09:29:03;5.27;;;2.53;;
10643;SDS011;5370;50.132;8.626;2024-02-14T09:31:30;2.70;;;2.20;;
10643;SDS011;5370;50.132;8.626;2024-02-14T09:33:55;3.90;;;2.63;;
10643;SDS011;5370;50.132;8.626;2024-02-14T09:36:23;5.57;;;2.30;;
10643;SDS011;5370;50.132;8.626;2024-02-14T09:38:49;4.67;;;2.57;;
10643;SDS011;5370;50.132;8.626;2024-02-14T09:41:22;5.47;;;2.60;;
10643;SDS011;5370;50.132;8.626;2024-02-14T09:43:55;3.70;;;2.10;;
10643;SDS011;5370;50.132;8.626;2024-02-14T09:46:21;4.37;;;2.20;;
10643;SDS011;5370;50.132;8.626;2024-02-14T09:48:50;3.53;;;2.37;;
10643;SDS011;5370;50.132;8.626;2024-02-14T09:51:18;6.20;;;2.47;;
10643;SDS011;5370;50.132;8.626;2024-02-14T09:53:44;4.50;;;2.40;;
10643;SDS011;5370;50.132;8.626;2024-02-14T09:56:10;3.77;;;2.23;;
10643;SDS011;5370;50.132;8.626;2024-02-14T09:58:38;4.23;;;2.00;;
10643;SDS011;5370;50.132;8.626;2024-02-14T10:01:05;4.03;;;2.50;;
10643;SDS011;5370;50.132;8.626;2024-02-14T10:03:31;3.93;;;1.73;;
10643;SDS011;5370;50.132;8.626;2024-02-14T10:05:58;6.87;;;2.47;;
10643;SDS011;5370;50.132;8.626;2024-02-14T10:08:24;4.20;;;2.17;;
10643;SDS011;5370;50.132;8.626;2024-02-14T10:10:51;5.20;;;2.20;;
10643;SDS011;5370;50.132;8.626;2024-02-14T10:13:17;3.00;;;2.03;;
10643;SDS011;5370;50.132;8.626;2024-02-14T10:15:42;3.97;;;2.00;;
10643;SDS011;5370;50.132;8.626;2024-02-14T10:18:08;3.13;;;1.83;;
10643;SDS011;5370;50.132;8.626;2024-02-14T10:20:37;2.77;;;2.07;;
10643;SDS011;5370;50.132;8.626;2024-02-14T10:23:08;3.23;;;1.97;;
10643;SDS011;5370;50.132;8.626;2024-02-14T10:25:35;2.97;;;1.67;;
10643;SDS011;5370;50.132;8.626;2024-02-14T10:28:05;3.17;;;2.13;;
10643;SDS011;5370;50.132;8.626;2024-02-14T10:30:35;4.87;;;2.07;;
10643;SDS011;5370;50.132;8.626;2024-02-14T10:33:03;2.90;;;1.97;;
10643;SDS011;5370;50.132;8.626;2024-02-14T10:35:30;3.93;;;2.00;;
10643;SDS011;5370;50.132;8.626;2024-02-14T10:37:57;6.10;;;2.40;;
10643;SDS011;5370;50.132;8.626;2024-02-14T10:40:27;6.57;;;2.10;;
10643;SDS011;5370;50.132;8.626;2024-02-14T10:42:53;4.00;;;2.20;;
10643;SDS011;5370;50.132;8.626;2024-02-14T10:45:19;4.43;;;1.90;;
10643;SDS011;5370;50.132;8.626;2024-02-14T10:47:45;6.17;;;2.53;;
10643;SDS011;5370;50.132;8.626;2024-02-14T10:50:15;3.03;;;1.97;;
10643;SDS011;5370;50.132;8.626;2024-02-14T10:52:41;2.47;;;1.70;;
10643;SDS011;5370;50.132;8.626;2024-02-14T10:55:07;3.60;;;1.73;;
10643;SDS011;5370;50.132;8.626;2024-02-14T10:57:34;4.47;;;1.63;;
10643;SDS011;5370;50.132;8.626;2024-02-14T11:00:01;6.27;;;2.10;;
10643;SDS011;5370;50.132;8.626;2024-02-14T11:02:30;4.37;;;2.00;;
10643;SDS011;5370;50.132;8.626;2024-02-14T11:04:57;3.43;;;1.80;;
10643;SDS011;5370;50.132;8.626;2024-02-14T11:07:23;5.00;;;2.43;;
10643;SDS011;5370;50.132;8.626;2024-02-14T11:09:59;4.83;;;2.40;;
10643;SDS011;5370;50.132;8.626;2024-02-14T11:12:31;3.13;;;2.07;;
10643;SDS011;5370;50.132;8.626;2024-02-14T11:15:08;3.27;;;2.50;;
10643;SDS011;5370;50.132;8.626;2024-02-14T11:17:41;4.33;;;1.90;;
10643;SDS011;5370;50.132;8.626;2024-02-14T11:20:20;4.07;;;1.93;;
10643;SDS011;5370;50.132;8.626;2024-02-14T11:23:02;4.67;;;2.00;;
10643;SDS011;5370;50.132;8.626;2024-02-14T11:25:30;5.57;;;2.17;;
10643;SDS011;5370;50.132;8.626;2024-02-14T11:28:00;5.07;;;2.00;;
10643;SDS011;5370;50.132;8.626;2024-02-14T11:30:29;2.23;;;1.70;;
10643;SDS011;5370;50.132;8.626;2024-02-14T11:33:08;2.20;;;1.53;;
10643;SDS011;5370;50.132;8.626;2024-02-14T11:35:48;3.70;;;2.03;;
10643;SDS011;5370;50.132;8.626;2024-02-14T11:38:21;3.43;;;1.80;;
10643;SDS011;5370;50.132;8.626;2024-02-14T11:40:48;4.13;;;1.63;;
10643;SDS011;5370;50.132;8.626;2024-02-14T11:43:15;3.37;;;1.80;;
10643;SDS011;5370;50.132;8.626;2024-02-14T11:45:43;3.27;;;1.80;;
10643;SDS011;5370;50.132;8.626;2024-02-14T11:48:13;2.07;;;1.80;;
10643;SDS011;5370;50.132;8.626;2024-02-14T11:50:40;4.07;;;1.70;;
10643;SDS011;5370;50.132;8.626;2024-02-14T11:53:08;2.70;;;2.03;;
10643;SDS011;5370;50.132;8.626;2024-02-14T11:55:36;2.07;;;1.30;;
10643;SDS011;5370;50.132;8.626;2024-02-14T11:58:09;4.37;;;1.63;;
10643;SDS011;5370;50.132;8.626;2024-02-14T12:00:45;4.18;;;1.92;;
10643;SDS011;5370;50.132;8.626;2024-02-14T12:03:13;4.23;;;2.10;;
10643;SDS011;5370;50.132;8.626;2024-02-14T12:05:42;3.10;;;1.90;;
10643;SDS011;5370;50.132;8.626;2024-02-14T12:08:09;2.53;;;1.90;;
10643;SDS011;5370;50.132;8.626;2024-02-14T12:10:35;1.50;;;1.40;;
10643;SDS011;5370;50.132;8.626;2024-02-14T12:13:07;3.20;;;1.90;;
10643;SDS011;5370;50.132;8.626;2024-02-14T12:15:37;4.70;;;1.33;;
10643;SDS011;5370;50.132;8.626;2024-02-14T12:18:09;3.07;;;1.63;;
10643;SDS011;5370;50.132;8.626;2024-02-14T12:20:35;1.60;;;1.40;;
10643;SDS011;5370;50.132;8.626;2024-02-14T12:23:02;3.93;;;1.80;;
10643;SDS011;5370;50.132;8.626;2024-02-14T12:25:29;3.00;;;1.60;;
10643;SDS011;5370;50.132;8.626;2024-02-14T12:27:56;5.70;;;2.03;;
10643;SDS011;5370;50.132;8.626;2024-02-14T12:30:23;4.63;;;1.70;;
10643;SDS011;5370;50.132;8.626;2024-02-14T12:32:59;3.03;;;2.07;;
10643;SDS011;5370;50.132;8.626;2024-02-14T12:35:26;6.23;;;1.93;;
10643;SDS011;5370;50.132;8.626;2024-02-14T12:37:52;3.70;;;2.40;;
10643;SDS011;5370;50.132;8.626;2024-02-14T12:40:18;3.73;;;1.33;;
10643;SDS011;5370;50.132;8.626;2024-02-14T12:42:45;3.47;;;1.70;;
10643;SDS011;5370;50.132;8.626;2024-02-14T12:45:10;1.93;;;1.40;;
10643;SDS011;5370;50.132;8.626;2024-02-14T12:47:36;3.07;;;1.60;;
10643;SDS011;5370;50.132;8.626;2024-02-14T12:50:02;5.00;;;2.20;;
10643;SDS011;5370;50.132;8.626;2024-02-14T12:52:27;3.77;;;1.60;;
10643;SDS011;5370;50.132;8.626;2024-02-14T12:54:53;4.87;;;1.80;;
10643;SDS011;5370;50.132;8.626;2024-02-14T12:57:18;4.70;;;1.97;;
10643;SDS011;5370;50.132;8.626;2024-02-14T12:59:46;3.23;;;2.20;;
10643;SDS011;5370;50.132;8.626;2024-02-14T13:02:11;5.87;;;2.10;;
10643;SDS011;5370;50.132;8.626;2024-02-14T13:04:37;3.87;;;1.70;;
10643;SDS011;5370;50.132;8.626;2024-02-14T13:07:03;4.33;;;2.00;;
10643;SDS011;5370;50.132;8.626;2024-02-14T13:09:29;3.43;;;1.70;;
10643;SDS011;5370;50.132;8.626;2024-02-14T13:11:54;2.10;;;1.80;;
10643;SDS011;5370;50.132;8.626;2024-02-14T13:14:20;4.00;;;1.93;;
10643;SDS011;5370;50.132;8.626;2024-02-14T13:16:46;4.40;;;1.93;;
10643;SDS011;5370;50.132;8.626;2024-02-14T13:19:11;3.17;;;2.20;;
10643;SDS011;5370;50.132;8.626;2024-02-14T13:21:37;3.03;;;2.20;;
10643;SDS011;5370;50.132;8.626;2024-02-14T13:24:03;2.27;;;1.87;;
10643;SDS011;5370;50.132;8.626;2024-02-14T13:26:28;4.17;;;2.47;;
10643;SDS011;5370;50.132;8.626;2024-02-14T13:28:54;6.33;;;1.90;;
10643;SDS011;5370;50.132;8.626;2024-02-14T13:31:20;4.43;;;2.27;;
10643;SDS011;5370;50.132;8.626;2024-02-14T13:33:46;2.20;;;1.70;;
10643;SDS011;5370;50.132;8.626;2024-02-14T13:36:12;4.20;;;1.93;;
10643;SDS011;5370;50.132;8.626;2024-02-14T13:38:40;6.53;;;2.10;;
10643;SDS011;5370;50.132;8.626;2024-02-14T13:41:05;4.73;;;2.23;;
10643;SDS011;5370;50.132;8.626;2024-02-14T13:43:31;7.67;;;2.47;;
10643;SDS011;5370;50.132;8.626;2024-02-14T13:45:56;3.90;;;2.10;;
10643;SDS011;5370;50.132;8.626;2024-02-14T13:48:22;3.60;;;1.93;;
10643;SDS011;5370;50.132;8.626;2024-02-14T13:50:48;2.87;;;2.10;;
10643;SDS011;5370;50.132;8.626;2024-02-14T13:53:14;4.00;;;2.30;;
10643;SDS011;5370;50.132;8.626;2024-02-14T13:55:41;3.80;;;2.10;;
10643;SDS011;5370;50.132;8.626;2024-02-14T13:58:07;3.00;;;2.47;;
10643;SDS011;5370;50.132;8.626;2024-02-14T14:00:38;2.30;;;1.97;;
10643;SDS011;5370;50.132;8.626;2024-02-14T14:03:04;3.20;;;2.43;;
10643;SDS011;5370;50.132;8.626;2024-02-14T14:05:30;3.37;;;2.17;;
10643;SDS011;5370;50.132;8.626;2024-02-14T14:07:55;3.90;;;2.70;;
10643;SDS011;5370;50.132;8.626;2024-02-14T14:10:22;4.97;;;2.60;;
10643;SDS011;5370;50.132;8.626;2024-02-14T14:12:50;2.40;;;2.20;;
10643;SDS011;5370;50.132;8.626;2024-02-14T14:15:15;3.87;;;2.20;;
10643;SDS011;5370;50.132;8.626;2024-02-14T14:17:41;3.63;;;3.00;;
10643;SDS011;5370;50.132;8.626;2024-02-14T14:20:07;3.17;;;2.17;;
10643;SDS011;5370;50.132;8.626;2024-02-14T14:22:33;8.53;;;2.40;;
10643;SDS011;5370;50.132;8.626;2024-02-14T14:24:58;3.80;;;2.30;;
10643;SDS011;5370;50.132;8.626;2024-02-14T14:27:24;3.63;;;2.43;;
10643;SDS011;5370;50.132;8.626;2024-02-14T14:29:49;5.60;;;3.17;;
10643;SDS011;5370;50.132;8.626;2024-02-14T14:32:15;6.13;;;2.63;;
10643;SDS011;5370;50.132;8.626;2024-02-14T14:34:41;5.33;;;2.40;;
10643;SDS011;5370;50.132;8.626;2024-02-14T14:37:07;4.37;;;2.63;;
10643;SDS011;5370;50.132;8.626;2024-02-14T14:39:32;3.20;;;2.47;;
10643;SDS011;5370;50.132;8.626;2024-02-14T14:41:58;3.30;;;2.70;;
10643;SDS011;5370;50.132;8.626;2024-02-14T14:44:24;6.37;;;3.00;;
10643;SDS011;5370;50.132;8.626;2024-02-14T14:46:50;6.90;;;3.63;;
10643;SDS011;5370;50.132;8.626;2024-02-14T14:49:15;3.53;;;2.53;;
10643;SDS011;5370;50.132;8.626;2024-02-14T14:51:41;6.07;;;2.63;;
10643;SDS011;5370;50.132;8.626;2024-02-14T14:54:07;3.60;;;2.40;;
10643;SDS011;5370;50.132;8.626;2024-02-14T14:56:33;3.73;;;2.83;;